createdAt,value
2022-09-21T00:01:31.906Z,1.20
2022-09-21T00:04:04.546Z,1.60
2022-09-21T00:06:35.170Z,1.30
2022-09-21T00:11:34.314Z,0.90
2022-09-21T00:14:12.736Z,1.08
2022-09-21T00:16:43.018Z,1.17
2022-09-21T00:19:11.905Z,1.35
2022-09-21T00:21:39.448Z,0.68
2022-09-21T00:24:08.214Z,0.90
2022-09-21T00:26:35.544Z,1.10
2022-09-21T00:29:05.020Z,1.60
2022-09-21T00:31:33.156Z,1.38
2022-09-21T00:34:01.150Z,1.05
2022-09-21T00:36:29.093Z,1.20
2022-09-21T00:39:03.709Z,1.13
2022-09-21T00:41:34.319Z,1.08
2022-09-21T00:47:15.503Z,1.17
2022-09-21T00:49:49.537Z,1.25
2022-09-21T00:52:19.564Z,1.80
2022-09-21T00:55:00.628Z,1.13
2022-09-21T00:57:31.276Z,0.95
2022-09-21T01:02:30.047Z,1.20
2022-09-21T01:04:57.501Z,0.80
2022-09-21T01:07:33.659Z,1.00
2022-09-21T01:10:11.952Z,0.93
2022-09-21T01:13:41.457Z,1.13
2022-09-21T01:17:09.325Z,1.20
2022-09-21T01:20:38.360Z,0.98
2022-09-21T01:24:19.938Z,1.17
2022-09-21T01:27:41.874Z,1.10
2022-09-21T01:30:19.566Z,1.20
2022-09-21T01:33:28.268Z,1.00
2022-09-21T01:36:05.983Z,1.08
2022-09-21T01:38:45.349Z,1.20
2022-09-21T01:41:19.776Z,1.42
2022-09-21T01:43:56.881Z,0.95
2022-09-21T01:46:32.355Z,0.90
2022-09-21T01:49:14.099Z,1.20
2022-09-21T01:51:58.385Z,0.90
2022-09-21T01:54:39.632Z,0.90
2022-09-21T01:57:36.919Z,0.75
2022-09-21T02:00:07.259Z,1.38
2022-09-21T02:02:51.164Z,1.08
2022-09-21T02:05:23.588Z,1.20
2022-09-21T02:07:52.648Z,1.33
2022-09-21T02:10:45.946Z,1.17
2022-09-21T02:13:16.640Z,1.30
2022-09-21T02:20:03.944Z,1.20
2022-09-21T02:23:29.541Z,1.30
2022-09-21T02:26:17.353Z,1.08
2022-09-21T02:29:33.504Z,1.00
2022-09-21T02:32:12.276Z,1.20
2022-09-21T02:35:02.416Z,1.23
2022-09-21T02:37:57.043Z,1.23
2022-09-21T02:40:53.629Z,1.27
2022-09-21T02:43:39.400Z,1.02
2022-09-21T02:46:21.382Z,1.02
2022-09-21T02:49:03.629Z,1.20
2022-09-21T02:51:41.353Z,1.25
2022-09-21T02:54:14.385Z,1.15
2022-09-21T02:56:44.552Z,1.27
2022-09-21T02:59:16.698Z,1.38
2022-09-21T03:01:44.615Z,1.45
2022-09-21T03:04:12.301Z,1.30
2022-09-21T03:06:39.601Z,1.50
2022-09-21T03:09:07.039Z,1.45
2022-09-21T03:11:36.113Z,1.17
2022-09-21T03:14:08.595Z,1.02
2022-09-21T03:16:37.576Z,1.50
2022-09-21T03:19:06.136Z,1.50
2022-09-21T03:21:34.368Z,1.40
2022-09-21T03:24:01.999Z,1.25
2022-09-21T03:26:29.704Z,1.48
2022-09-21T03:28:57.091Z,1.65
2022-09-21T03:31:24.430Z,1.40
2022-09-21T03:33:51.798Z,1.60
2022-09-21T03:36:19.521Z,1.50
2022-09-21T03:38:46.827Z,1.83
2022-09-21T03:41:15.271Z,1.63
2022-09-21T03:43:42.539Z,1.42
2022-09-21T03:46:10.148Z,1.48
2022-09-21T03:48:37.447Z,2.03
2022-09-21T03:51:04.883Z,1.67
2022-09-21T03:53:32.153Z,1.75
2022-09-21T03:55:59.420Z,1.60
2022-09-21T03:58:26.772Z,1.45
2022-09-21T04:00:54.788Z,1.77
2022-09-21T04:03:22.260Z,2.22
2022-09-21T04:05:49.787Z,1.83
2022-09-21T04:08:17.028Z,1.83
2022-09-21T04:10:44.387Z,2.03
2022-09-21T04:13:14.358Z,1.70
2022-09-21T04:15:41.680Z,2.00
2022-09-21T04:18:09.062Z,1.98
2022-09-21T04:20:36.392Z,1.70
2022-09-21T04:23:03.748Z,2.00
2022-09-21T04:25:31.031Z,1.90
2022-09-21T04:27:58.324Z,2.17
2022-09-21T04:30:25.787Z,1.90
2022-09-21T04:32:53.320Z,1.90
2022-09-21T04:35:21.254Z,1.90
2022-09-21T04:37:48.499Z,2.47
2022-09-21T04:40:15.909Z,1.90
2022-09-21T04:42:43.257Z,1.88
2022-09-21T04:45:11.209Z,2.13
2022-09-21T04:47:38.472Z,1.75
2022-09-21T04:50:07.084Z,2.30
2022-09-21T04:52:34.373Z,2.80
2022-09-21T04:55:01.665Z,3.08
2022-09-21T04:57:29.644Z,3.20
2022-09-21T04:59:56.913Z,3.35
2022-09-21T05:02:25.344Z,3.40
2022-09-21T05:04:52.600Z,4.05
2022-09-21T05:07:19.876Z,4.30
2022-09-21T05:10:05.279Z,5.00
2022-09-21T05:12:39.709Z,5.63
2022-09-21T05:15:11.406Z,4.68
2022-09-21T05:17:39.968Z,5.40
2022-09-21T05:20:07.900Z,5.57
2022-09-21T05:22:35.590Z,6.05
2022-09-21T05:25:03.128Z,5.63
2022-09-21T05:27:30.375Z,4.10
2022-09-21T05:29:58.281Z,5.05
2022-09-21T05:32:53.833Z,4.97
2022-09-21T05:36:10.489Z,4.32
2022-09-21T05:38:38.219Z,2.88
2022-09-21T05:41:06.587Z,4.32
2022-09-21T05:43:34.599Z,4.00
2022-09-21T05:46:59.147Z,4.47
2022-09-21T05:50:51.036Z,3.42
2022-09-21T05:54:12.108Z,6.07
2022-09-21T05:57:12.576Z,6.35
2022-09-21T06:00:16.360Z,7.65
2022-09-21T06:03:31.083Z,8.10
2022-09-21T06:05:59.452Z,7.28
2022-09-21T06:08:27.643Z,8.15
2022-09-21T06:10:57.645Z,8.30
2022-09-21T06:13:24.933Z,8.82
2022-09-21T06:15:52.416Z,9.27
2022-09-21T06:18:20.016Z,8.00
2022-09-21T06:20:47.580Z,8.77
2022-09-21T06:23:15.615Z,8.32
2022-09-21T06:25:44.499Z,7.63
2022-09-21T06:28:13.391Z,8.55
2022-09-21T06:30:42.857Z,7.68
2022-09-21T06:33:10.601Z,8.95
2022-09-21T06:35:38.080Z,9.13
2022-09-21T06:38:08.133Z,7.75
2022-09-21T06:40:38.969Z,8.90
2022-09-21T06:43:06.620Z,8.38
2022-09-21T06:45:34.226Z,8.43
2022-09-21T06:48:01.783Z,8.48
2022-09-21T06:50:29.446Z,9.60
2022-09-21T06:53:03.509Z,9.60
2022-09-21T06:55:32.077Z,9.43
2022-09-21T06:58:05.462Z,9.73
2022-09-21T07:00:33.527Z,10.05
2022-09-21T07:03:04.470Z,8.43
2022-09-21T07:05:34.208Z,13.27
2022-09-21T07:08:02.443Z,10.20
2022-09-21T07:10:29.756Z,9.73
2022-09-21T07:13:02.707Z,10.02
2022-09-21T07:15:31.180Z,9.55
2022-09-21T07:18:06.148Z,10.60
2022-09-21T07:20:33.795Z,9.27
2022-09-21T07:23:01.789Z,10.45
2022-09-21T07:25:29.299Z,10.57
2022-09-21T07:27:56.571Z,11.10
2022-09-21T07:30:23.933Z,10.05
2022-09-21T07:32:51.252Z,10.07
2022-09-21T07:35:20.121Z,10.15
2022-09-21T07:37:47.367Z,9.95
2022-09-21T07:40:14.749Z,9.38
2022-09-21T07:42:44.848Z,9.25
2022-09-21T07:45:12.298Z,9.77
2022-09-21T07:47:39.576Z,9.27
2022-09-21T07:50:07.602Z,10.32
2022-09-21T07:52:35.147Z,11.27
2022-09-21T07:55:02.425Z,11.73
2022-09-21T07:57:48.215Z,12.02
2022-09-21T08:00:15.764Z,11.95
2022-09-21T08:02:47.498Z,12.85
2022-09-21T08:05:17.615Z,11.98
2022-09-21T08:07:44.972Z,12.07
2022-09-21T08:10:13.058Z,11.45
2022-09-21T08:12:41.196Z,11.13
2022-09-21T08:15:25.011Z,12.18
2022-09-21T08:17:58.715Z,11.27
2022-09-21T08:20:26.080Z,11.23
2022-09-21T08:22:56.279Z,11.60
2022-09-21T08:25:23.923Z,11.95
2022-09-21T08:27:51.180Z,11.70
2022-09-21T08:30:18.512Z,12.30
2022-09-21T08:32:52.065Z,12.57
2022-09-21T08:35:19.410Z,14.70
2022-09-21T08:37:46.800Z,11.45
2022-09-21T08:40:16.789Z,12.13
2022-09-21T08:43:09.645Z,11.52
2022-09-21T08:45:46.692Z,11.20
2022-09-21T08:48:30.026Z,11.82
2022-09-21T08:51:11.354Z,11.50
2022-09-21T08:53:48.117Z,10.75
2022-09-21T08:56:16.395Z,10.80
2022-09-21T08:58:43.991Z,10.55
2022-09-21T09:01:20.318Z,10.93
2022-09-21T09:04:31.215Z,11.18
2022-09-21T09:10:27.984Z,9.60
2022-09-21T09:14:13.669Z,10.38
2022-09-21T09:17:36.224Z,9.68
2022-09-21T09:20:36.120Z,9.55
2022-09-21T09:23:18.292Z,10.20
2022-09-21T09:26:10.863Z,9.20
2022-09-21T09:29:01.984Z,9.65
2022-09-21T09:31:40.180Z,9.07
2022-09-21T09:34:33.612Z,9.88
2022-09-21T09:37:16.621Z,11.02
2022-09-21T09:39:54.800Z,10.48
2022-09-21T09:43:07.535Z,9.20
2022-09-21T09:46:13.543Z,9.23
2022-09-21T09:49:38.612Z,10.07
2022-09-21T09:52:11.130Z,7.45
2022-09-21T09:54:38.525Z,7.72
2022-09-21T09:57:07.376Z,7.30
2022-09-21T09:59:54.413Z,7.95
2022-09-21T10:02:29.456Z,7.70
2022-09-21T10:05:07.322Z,6.28
2022-09-21T10:07:45.893Z,6.80
2022-09-21T10:10:29.253Z,7.25
2022-09-21T10:13:37.943Z,7.53
2022-09-21T10:16:22.895Z,6.57
2022-09-21T10:18:56.459Z,5.63
2022-09-21T10:21:41.360Z,3.95
2022-09-21T10:24:23.540Z,5.72
2022-09-21T10:27:05.048Z,4.78
2022-09-21T10:29:47.716Z,3.65
2022-09-21T10:32:26.574Z,4.28
2022-09-21T10:35:10.342Z,3.95
2022-09-21T10:37:48.478Z,3.50
2022-09-21T10:40:21.450Z,4.00
2022-09-21T10:43:00.437Z,3.80
2022-09-21T10:45:37.026Z,3.58
2022-09-21T10:48:20.972Z,4.38
2022-09-21T10:50:51.576Z,3.50
2022-09-21T10:56:17.607Z,3.35
2022-09-21T10:59:27.284Z,3.55
2022-09-21T11:02:00.162Z,3.95
2022-09-21T11:04:53.708Z,3.20
2022-09-21T11:07:47.852Z,3.00
2022-09-21T11:10:51.233Z,3.10
2022-09-21T11:13:41.024Z,3.20
2022-09-21T11:16:48.728Z,3.73
2022-09-21T11:19:52.411Z,2.90
2022-09-21T11:22:57.715Z,3.47
2022-09-21T11:25:43.765Z,2.60
2022-09-21T11:28:28.668Z,2.72
2022-09-21T11:31:40.607Z,2.85
2022-09-21T11:34:55.860Z,2.90
2022-09-21T11:38:11.748Z,2.65
2022-09-21T11:40:55.807Z,2.63
2022-09-21T11:44:18.855Z,2.70
2022-09-21T11:47:58.483Z,2.92
2022-09-21T11:51:38.717Z,2.50
2022-09-21T11:55:00.628Z,2.30
2022-09-21T11:57:38.739Z,2.17
2022-09-21T12:00:21.513Z,2.25
2022-09-21T12:03:45.940Z,2.30
2022-09-21T12:07:01.427Z,1.90
2022-09-21T12:10:28.189Z,1.85
2022-09-21T12:13:43.888Z,1.65
2022-09-21T12:17:06.385Z,2.53
2022-09-21T12:20:06.157Z,2.17
2022-09-21T12:22:43.743Z,2.23
2022-09-21T12:25:43.796Z,1.77
2022-09-21T12:28:49.266Z,2.20
2022-09-21T12:31:30.308Z,2.20
2022-09-21T12:34:38.031Z,2.00
2022-09-21T12:37:32.524Z,2.10
2022-09-21T12:40:36.653Z,1.80
2022-09-21T12:43:39.613Z,1.65
2022-09-21T12:46:29.955Z,1.90
2022-09-21T12:49:03.099Z,1.88
2022-09-21T12:51:43.000Z,1.65
2022-09-21T12:55:10.024Z,1.80
2022-09-21T12:58:41.364Z,1.60
2022-09-21T13:01:56.989Z,1.73
2022-09-21T13:05:15.999Z,1.80
2022-09-21T13:08:31.030Z,1.35
2022-09-21T13:11:07.823Z,1.00
2022-09-21T13:13:56.327Z,1.60
2022-09-21T13:16:40.201Z,1.40
2022-09-21T13:19:13.459Z,1.40
2022-09-21T13:21:42.154Z,1.58
2022-09-21T13:24:30.457Z,1.27
2022-09-21T13:27:05.026Z,1.15
2022-09-21T13:29:38.047Z,1.20
2022-09-21T13:32:24.053Z,1.33
2022-09-21T13:34:51.588Z,1.30
2022-09-21T13:37:19.120Z,1.55
2022-09-21T13:40:06.230Z,1.70
2022-09-21T13:42:33.675Z,1.35
2022-09-21T13:45:15.597Z,1.35
2022-09-21T13:47:47.308Z,1.45
2022-09-21T13:50:39.159Z,1.25
2022-09-21T13:53:29.611Z,1.70
2022-09-21T13:58:52.146Z,1.45
2022-09-21T14:01:45.899Z,1.83
2022-09-21T14:04:31.678Z,1.05
2022-09-21T14:07:08.041Z,1.33
2022-09-21T14:10:03.686Z,1.30
2022-09-21T14:12:44.576Z,1.20
2022-09-21T14:15:19.197Z,1.20
2022-09-21T14:18:37.653Z,1.30
2022-09-21T14:21:18.349Z,1.33
2022-09-21T14:24:07.679Z,1.27
2022-09-21T14:26:39.734Z,1.00
2022-09-21T14:29:48.271Z,1.25
2022-09-21T14:32:25.564Z,1.60
2022-09-21T14:35:08.141Z,1.48
2022-09-21T14:37:52.162Z,1.15
2022-09-21T14:40:42.248Z,1.60
2022-09-21T14:43:20.408Z,1.15
2022-09-21T14:46:36.798Z,1.27
2022-09-21T14:49:51.188Z,0.90
2022-09-21T14:52:43.375Z,1.15
2022-09-21T14:56:22.551Z,1.10
2022-09-21T15:00:00.891Z,0.80
2022-09-21T15:02:35.703Z,0.95
2022-09-21T15:05:09.606Z,0.82
2022-09-21T15:08:56.548Z,0.90
2022-09-21T15:11:44.280Z,0.95
2022-09-21T15:14:38.236Z,1.13
2022-09-21T15:17:30.038Z,0.70
2022-09-21T15:20:16.213Z,0.80
2022-09-21T15:22:44.185Z,1.15
2022-09-21T15:25:14.671Z,0.57
2022-09-21T15:27:47.367Z,1.00
2022-09-21T15:30:33.125Z,0.90
2022-09-21T15:33:02.751Z,1.10
2022-09-21T15:35:33.739Z,0.82
2022-09-21T15:38:01.671Z,0.80
2022-09-21T15:40:35.893Z,0.80
2022-09-21T15:43:11.728Z,0.60
2022-09-21T15:46:07.441Z,0.80
2022-09-21T15:48:42.210Z,0.60
2022-09-21T15:51:31.148Z,0.57
2022-09-21T15:54:30.530Z,0.50
2022-09-21T15:57:05.921Z,0.70
2022-09-21T15:59:35.436Z,0.80
2022-09-21T16:02:17.352Z,0.90
2022-09-21T16:04:52.471Z,0.65
2022-09-21T16:07:38.823Z,0.85
2022-09-21T16:10:30.818Z,0.77
2022-09-21T16:13:43.821Z,0.90
2022-09-21T16:16:14.849Z,0.90
2022-09-21T16:18:54.422Z,0.82
2022-09-21T16:21:27.671Z,0.70
2022-09-21T16:23:59.183Z,0.77
2022-09-21T16:26:38.001Z,0.80
2022-09-21T16:29:45.531Z,1.17
2022-09-21T16:32:18.695Z,0.80
2022-09-21T16:34:52.685Z,0.60
2022-09-21T16:37:25.912Z,0.70
2022-09-21T16:40:00.566Z,0.47
2022-09-21T16:42:34.331Z,0.95
2022-09-21T16:45:11.264Z,0.63
2022-09-21T16:47:39.248Z,0.70
2022-09-21T16:50:18.998Z,0.82
2022-09-21T16:52:52.058Z,0.90
2022-09-21T16:55:24.351Z,0.90
2022-09-21T16:57:54.327Z,0.90
2022-09-21T17:00:22.165Z,0.65
2022-09-21T17:02:49.795Z,0.80
2022-09-21T17:05:20.683Z,0.90
2022-09-21T17:07:59.198Z,0.70
2022-09-21T17:10:37.873Z,0.80
2022-09-21T17:13:06.890Z,0.63
2022-09-21T17:15:36.352Z,0.63
2022-09-21T17:18:04.672Z,0.70
2022-09-21T17:20:43.760Z,0.77
2022-09-21T17:23:12.076Z,0.80
2022-09-21T17:25:39.435Z,1.25
2022-09-21T17:28:25.746Z,0.82
2022-09-21T17:30:54.793Z,1.42
2022-09-21T17:33:25.043Z,0.80
2022-09-21T17:35:53.208Z,0.90
2022-09-21T17:38:20.738Z,1.00
2022-09-21T17:40:48.305Z,0.77
2022-09-21T17:43:54.896Z,1.00
2022-09-21T17:47:01.408Z,0.85
2022-09-21T17:49:29.968Z,0.88
2022-09-21T17:52:16.288Z,0.80
2022-09-21T17:54:43.927Z,1.00
2022-09-21T17:57:41.924Z,1.27
2022-09-21T18:00:32.250Z,1.17
2022-09-21T18:03:00.009Z,0.82
2022-09-21T18:05:30.761Z,1.10
2022-09-21T18:07:59.014Z,0.70
2022-09-21T18:10:27.520Z,1.45
2022-09-21T18:13:47.954Z,1.13
2022-09-21T18:17:01.077Z,0.77
2022-09-21T18:20:34.231Z,1.20
2022-09-21T18:23:37.663Z,1.00
2022-09-21T18:26:05.980Z,0.85
2022-09-21T18:28:48.012Z,0.90
2022-09-21T18:32:06.993Z,0.90
2022-09-21T18:35:18.662Z,1.30
2022-09-21T18:38:26.911Z,1.60
2022-09-21T18:41:46.144Z,1.00
2022-09-21T18:44:49.867Z,1.20
2022-09-21T18:47:38.842Z,1.20
2022-09-21T18:51:14.911Z,1.67
2022-09-21T18:54:03.477Z,1.15
2022-09-21T18:56:37.864Z,1.17
2022-09-21T18:59:07.153Z,1.10
2022-09-21T19:01:35.180Z,1.30
2022-09-21T19:04:03.327Z,1.58
2022-09-21T19:06:44.559Z,1.15
2022-09-21T19:09:37.444Z,1.00
2022-09-21T19:13:02.375Z,1.10
2022-09-21T19:16:00.820Z,1.17
2022-09-21T19:19:06.740Z,1.33
2022-09-21T19:22:01.505Z,1.30
2022-09-21T19:25:04.524Z,1.02
2022-09-21T19:27:46.968Z,1.10
2022-09-21T19:30:17.116Z,1.08
2022-09-21T19:33:02.889Z,1.15
2022-09-21T19:35:34.364Z,0.80
2022-09-21T19:38:09.087Z,1.30
2022-09-21T19:40:39.494Z,1.27
2022-09-21T19:47:12.147Z,1.20
2022-09-21T19:49:54.706Z,1.02
2022-09-21T19:52:35.639Z,1.27
2022-09-21T19:55:23.551Z,1.58
2022-09-21T19:58:14.502Z,1.10
2022-09-21T20:00:43.710Z,1.40
2022-09-21T20:03:44.690Z,1.60
2022-09-21T20:06:44.193Z,1.50
2022-09-21T20:09:42.133Z,1.48
2022-09-21T20:12:42.090Z,1.20
2022-09-21T20:15:29.379Z,1.27
2022-09-21T20:18:14.773Z,1.42
2022-09-21T20:20:43.080Z,1.73
2022-09-21T20:23:13.902Z,1.48
2022-09-21T20:26:01.414Z,1.00
2022-09-21T20:28:29.148Z,1.17
2022-09-21T20:30:56.914Z,1.33
2022-09-21T20:33:26.873Z,1.30
2022-09-21T20:35:55.890Z,1.05
2022-09-21T20:38:23.516Z,1.00
2022-09-21T20:40:52.339Z,1.23
2022-09-21T20:43:21.915Z,1.20
2022-09-21T20:45:49.380Z,1.13
2022-09-21T20:48:17.488Z,1.70
2022-09-21T20:50:50.370Z,1.35
2022-09-21T20:53:19.264Z,1.30
2022-09-21T20:56:00.963Z,1.08
2022-09-21T20:58:35.233Z,1.30
2022-09-21T21:01:10.009Z,1.35
2022-09-21T21:03:37.504Z,1.00
2022-09-21T21:06:18.649Z,1.40
2022-09-21T21:08:46.264Z,1.23
2022-09-21T21:11:16.908Z,1.30
2022-09-21T21:16:12.499Z,1.33
2022-09-21T21:18:41.624Z,1.20
2022-09-21T21:21:09.737Z,1.13
2022-09-21T21:23:57.161Z,1.35
2022-09-21T21:26:43.858Z,1.35
2022-09-21T21:29:14.504Z,1.20
2022-09-21T21:31:42.207Z,1.08
2022-09-21T21:34:09.549Z,1.17
2022-09-21T21:36:36.845Z,1.23
2022-09-21T21:39:04.159Z,1.00
2022-09-21T21:41:32.655Z,1.35
2022-09-21T21:44:00.196Z,0.82
2022-09-21T21:46:28.027Z,1.02
2022-09-21T21:48:55.327Z,1.00
2022-09-21T21:51:22.595Z,0.95
2022-09-21T21:53:49.869Z,1.10
2022-09-21T21:56:20.083Z,0.93
2022-09-21T21:58:47.525Z,1.17
2022-09-21T22:01:22.255Z,1.10
2022-09-21T22:04:01.676Z,1.20
2022-09-21T22:06:33.391Z,1.10
2022-09-21T22:09:03.499Z,1.00
2022-09-21T22:11:32.055Z,0.80
2022-09-21T22:14:02.645Z,1.10
2022-09-21T22:19:04.685Z,0.93
2022-09-21T22:21:48.187Z,0.95
2022-09-21T22:24:17.810Z,1.13
2022-09-21T22:26:48.424Z,0.88
2022-09-21T22:29:17.312Z,1.50
2022-09-21T22:31:50.089Z,1.00
2022-09-21T22:34:17.680Z,1.10
2022-09-21T22:36:45.107Z,1.25
2022-09-21T22:39:12.946Z,1.00
2022-09-21T22:41:42.787Z,0.98
2022-09-21T22:44:11.361Z,0.90
2022-09-21T22:46:39.109Z,1.17
2022-09-21T22:49:07.739Z,1.63
2022-09-21T22:51:37.857Z,2.08
2022-09-21T22:54:05.241Z,2.40
2022-09-21T22:56:35.039Z,2.72
2022-09-21T22:59:05.428Z,2.83
2022-09-21T23:01:40.223Z,2.20
2022-09-21T23:04:13.630Z,2.08
2022-09-21T23:06:45.260Z,2.22
2022-09-21T23:09:21.360Z,1.92
2022-09-21T23:11:54.917Z,1.83
2022-09-21T23:14:23.537Z,1.65
2022-09-21T23:16:51.190Z,1.40
2022-09-21T23:19:18.540Z,1.50
2022-09-21T23:21:50.137Z,1.60
2022-09-21T23:24:20.334Z,1.10
2022-09-21T23:26:52.963Z,1.50
2022-09-21T23:29:20.553Z,1.20
2022-09-21T23:31:47.993Z,1.42
2022-09-21T23:34:16.422Z,1.75
2022-09-21T23:36:45.445Z,1.33
2022-09-21T23:39:15.209Z,1.92
2022-09-21T23:41:42.885Z,1.57
2022-09-21T23:44:11.168Z,1.90
2022-09-21T23:46:40.918Z,1.70
2022-09-21T23:49:09.007Z,1.45
2022-09-21T23:51:36.911Z,1.27
2022-09-21T23:54:04.967Z,1.92
2022-09-21T23:56:32.768Z,1.50
2022-09-21T23:59:00.937Z,1.88
